Time;durP1;ratioP1;P1;durP2;ratioP2;P2;SDS_P1;SDS_P2;PMS_P1;PMS_P2;Temp;Humidity;BMP_temperature;BMP_pressure;BME280_temperature;BME280_humidity;BME280_pressure;Samples;Min_cycle;Max_cycle;Signal;HPM_P1;HPM_P2
2021/06/13 00:03:01;;;;;;;3.10;2.80;;;25.70;37.70;;;;;;21002231;28;20305;-53
2021/06/13 00:13:02;;;;;;;5.40;3.23;;;25.60;38.10;;;;;;21010042;28;20049;-53
2021/06/13 00:23:04;;;;;;;5.07;3.80;;;25.60;38.20;;;;;;21009271;28;20056;-55
2021/06/13 00:33:06;;;;;;;4.07;3.42;;;25.50;38.40;;;;;;21006977;28;20060;-55
2021/06/13 00:43:08;;;;;;;4.05;2.85;;;25.30;38.70;;;;;;21007583;28;20048;-54
2021/06/13 00:53:09;;;;;;;3.53;2.75;;;25.20;39.00;;;;;;21007236;28;20044;-55
2021/06/13 01:03:11;;;;;;;3.10;2.80;;;25.10;39.00;;;;;;21006446;28;20481;-56
2021/06/13 01:13:37;;;;;;;6.03;2.97;;;25.00;39.20;;;;;;20987284;28;20045;-54
2021/06/13 01:24:21;;;;;;;4.43;2.80;;;25.00;39.50;;;;;;20651912;28;20047;-53
2021/06/13 01:34:27;;;;;;;3.97;3.55;;;24.90;39.70;;;;;;20427406;29;20052;-52
2021/06/13 01:44:30;;;;;;;3.83;3.22;;;24.70;40.00;;;;;;20427096;29;20063;-53
2021/06/13 01:54:32;;;;;;;4.70;2.83;;;24.70;40.10;;;;;;20488277;28;20047;-54
2021/06/13 02:04:36;;;;;;;4.13;3.10;;;24.60;40.30;;;;;;20760020;28;20127;-54
2021/06/13 02:14:38;;;;;;;3.15;2.72;;;24.40;40.70;;;;;;20982924;28;20459;-53
2021/06/13 02:24:43;;;;;;;4.05;3.13;;;24.30;40.90;;;;;;20964619;28;20052;-57
2021/06/13 02:34:47;;;;;;;4.40;3.08;;;24.20;41.10;;;;;;20998753;28;20041;-59
2021/06/13 02:44:48;;;;;;;4.90;2.92;;;24.10;41.20;;;;;;20997776;28;20048;-59
2021/06/13 02:54:53;;;;;;;5.03;3.28;;;24.10;41.40;;;;;;20997670;28;20492;-52
2021/06/13 03:04:57;;;;;;;3.47;2.95;;;24.10;41.50;;;;;;20995958;28;20059;-57
2021/06/13 03:15:00;;;;;;;4.22;3.03;;;24.00;41.50;;;;;;20996639;28;20208;-53
2021/06/13 03:25:03;;;;;;;3.92;3.47;;;23.90;41.70;;;;;;20995480;28;20477;-56
2021/06/13 03:35:07;;;;;;;3.20;2.90;;;23.80;41.90;;;;;;20994451;28;20051;-54
2021/06/13 03:45:11;;;;;;;5.90;3.40;;;23.80;42.20;;;;;;20994930;28;20059;-58
2021/06/13 03:55:12;;;;;;;4.75;3.17;;;23.70;42.50;;;;;;20994189;28;20045;-53
2021/06/13 04:05:15;;;;;;;3.63;3.33;;;23.70;42.60;;;;;;20993963;28;20048;-52
2021/06/13 04:15:20;;;;;;;4.80;3.08;;;23.60;42.60;;;;;;20993732;28;20380;-52
2021/06/13 04:25:21;;;;;;;4.10;3.13;;;23.60;42.60;;;;;;20994322;28;20056;-57
2021/06/13 04:35:23;;;;;;;4.40;3.00;;;23.60;42.60;;;;;;20992741;28;20519;-57
2021/06/13 04:45:24;;;;;;;4.25;3.33;;;23.60;42.50;;;;;;20994123;28;20057;-52
2021/06/13 04:55:42;;;;;;;4.50;3.00;;;23.60;42.60;;;;;;21004848;28;20044;-53
2021/06/13 05:05:44;;;;;;;4.18;3.25;;;23.60;42.00;;;;;;20971489;28;20082;-53
2021/06/13 05:15:45;;;;;;;4.23;3.23;;;23.50;41.80;;;;;;21005467;28;20404;-52
2021/06/13 05:25:47;;;;;;;3.22;2.92;;;23.50;41.90;;;;;;21003923;28;20048;-53
2021/06/13 05:35:49;;;;;;;3.35;2.90;;;23.50;41.90;;;;;;21002143;28;20048;-52
2021/06/13 05:45:51;;;;;;;4.38;3.90;;;23.50;42.10;;;;;;21002600;28;20049;-54
2021/06/13 05:55:52;;;;;;;3.37;3.07;;;23.60;42.40;;;;;;21000601;28;20101;-52
2021/06/13 06:05:54;;;;;;;3.20;2.88;;;23.60;42.40;;;;;;21000773;28;20048;-56
2021/06/13 06:15:55;;;;;;;4.37;3.90;;;23.60;42.70;;;;;;20999615;28;20044;-53
2021/06/13 06:25:56;;;;;;;4.80;3.58;;;23.60;42.90;;;;;;20998850;28;20420;-54
2021/06/13 06:35:58;;;;;;;5.25;3.47;;;23.70;43.10;;;;;;20998192;28;20056;-53
2021/06/13 06:46:00;;;;;;;3.67;3.37;;;23.90;43.00;;;;;;20997575;28;20109;-52
2021/06/13 06:56:02;;;;;;;6.45;3.70;;;24.10;42.70;;;;;;20997664;28;20079;-58
2021/06/13 07:06:03;;;;;;;3.73;3.43;;;24.50;42.30;;;;;;20996871;28;20044;-59
2021/06/13 07:16:05;;;;;;;4.23;3.23;;;24.70;41.80;;;;;;20996019;28;20045;-58
2021/06/13 07:26:06;;;;;;;3.60;3.30;;;24.90;41.10;;;;;;20995842;28;20040;-53
2021/06/13 07:36:08;;;;;;;3.20;2.90;;;25.20;40.90;;;;;;20995215;28;20102;-59
2021/06/13 07:46:10;;;;;;;4.15;3.03;;;26.10;39.10;;;;;;20995128;28;20052;-54
2021/06/13 07:56:12;;;;;;;;;;;26.80;38.20;;;;;;20994195;28;20059;-59
2021/06/13 08:06:13;;;;;;;4.93;3.33;;;27.10;37.70;;;;;;20993479;28;19928;-53
2021/06/13 08:16:14;;;;;;;4.37;3.33;;;26.70;38.90;;;;;;20992832;28;20040;-57
2021/06/13 08:26:16;;;;;;;4.85;3.17;;;26.90;38.40;;;;;;20985426;28;20619;-54
2021/06/13 08:36:17;;;;;;;3.85;3.38;;;27.20;37.60;;;;;;21007446;28;20102;-54
2021/06/13 08:46:21;;;;;;;3.30;2.78;;;27.60;37.00;;;;;;21007046;28;20083;-54
2021/06/13 08:56:23;;;;;;;4.53;3.72;;;28.10;35.90;;;;;;21005514;28;20048;-53
2021/06/13 09:06:25;;;;;;;5.68;3.50;;;28.90;34.50;;;;;;21005318;28;20131;-54
2021/06/13 09:16:28;;;;;;;5.53;3.10;;;29.10;34.60;;;;;;21005323;28;20404;-53
2021/06/13 09:26:30;;;;;;;6.40;2.95;;;28.90;34.80;;;;;;21005058;28;20493;-56
2021/06/13 09:36:33;;;;;;;3.42;2.85;;;29.20;34.50;;;;;;21002895;28;20052;-54
2021/06/13 09:46:49;;;;;;;5.05;3.20;;;29.50;33.90;;;;;;21002077;28;20101;-52
2021/06/13 09:56:50;;;;;;;7.80;4.50;;;29.50;33.60;;;;;;21001077;28;20051;-54
2021/06/13 10:07:14;;;;;;;3.67;3.38;;;29.80;33.40;;;;;;20999949;28;20052;-53
2021/06/13 10:17:16;;;;;;;3.22;2.70;;;29.90;33.40;;;;;;20998950;28;20052;-54
2021/06/13 10:27:20;;;;;;;3.78;3.20;;;29.90;33.20;;;;;;20997630;28;20052;-53
2021/06/13 10:37:21;;;;;;;4.75;2.78;;;29.90;33.60;;;;;;20998088;28;20052;-55
2021/06/13 10:47:23;;;;;;;4.85;2.70;;;30.10;31.50;;;;;;20996825;28;20051;-54
2021/06/13 10:57:46;;;;;;;3.38;2.50;;;30.10;30.80;;;;;;20995794;28;20044;-54
2021/06/13 11:07:57;;;;;;;4.32;2.92;;;30.50;30.10;;;;;;20996313;28;20063;-54
2021/06/13 11:18:15;;;;;;;3.80;2.97;;;30.50;30.40;;;;;;20995525;28;20063;-54
2021/06/13 11:28:35;;;;;;;4.00;2.80;;;30.50;30.20;;;;;;20995196;28;20075;-52
2021/06/13 11:38:36;;;;;;;3.57;2.53;;;30.70;29.80;;;;;;20993936;28;20131;-56
2021/06/13 11:48:49;;;;;;;3.08;2.50;;;30.70;30.50;;;;;;20994135;28;20049;-55
2021/06/13 11:59:17;;;;;;;4.40;2.80;;;30.80;30.30;;;;;;21003428;28;20489;-54
2021/06/13 12:09:21;;;;;;;5.28;2.47;;;31.10;29.50;;;;;;20995616;28;20087;-55
2021/06/13 12:19:39;;;;;;;5.68;4.35;;;31.10;29.70;;;;;;21009570;28;20052;-54
2021/06/13 12:29:41;;;;;;;4.57;2.35;;;31.40;29.40;;;;;;21008307;28;20513;-54
2021/06/13 12:39:59;;;;;;;3.38;2.70;;;31.50;28.70;;;;;;21007121;28;20052;-55
2021/06/13 12:50:01;;;;;;;5.75;2.92;;;31.40;28.40;;;;;;21006620;28;20131;-53
2021/06/13 13:00:04;;;;;;;5.15;2.42;;;31.60;26.90;;;;;;21006035;28;20091;-53
2021/06/13 13:10:19;;;;;;;5.80;2.40;;;32.00;25.80;;;;;;21003769;28;20049;-55
2021/06/13 13:20:32;;;;;;;3.22;2.28;;;32.10;25.30;;;;;;21005083;28;20068;-54
2021/06/13 13:30:35;;;;;;;3.33;1.90;;;32.30;25.00;;;;;;21002999;28;20055;-56
2021/06/13 13:40:39;;;;;;;3.88;2.10;;;32.50;25.30;;;;;;21003516;28;20096;-55
2021/06/13 13:50:57;;;;;;;4.63;2.55;;;32.60;24.90;;;;;;21001760;28;20084;-54
2021/06/13 14:00:59;;;;;;;7.97;2.50;;;32.70;24.50;;;;;;21000807;28;20048;-54
2021/06/13 14:11:00;;;;;;;3.25;2.08;;;32.80;24.20;;;;;;20999381;28;20080;-54
2021/06/13 14:21:02;;;;;;;5.18;1.92;;;33.70;23.40;;;;;;20998851;28;20052;-54
2021/06/13 14:31:04;;;;;;;6.72;2.25;;;33.10;23.70;;;;;;20998532;28;20071;-54
2021/06/13 14:41:05;;;;;;;4.82;2.90;;;33.10;23.90;;;;;;20997080;28;20053;-56
2021/06/13 14:51:07;;;;;;;7.82;2.15;;;33.30;23.50;;;;;;20997048;28;20486;-56
2021/06/13 15:01:08;;;;;;;5.22;1.90;;;33.50;23.30;;;;;;20996780;28;20045;-54
2021/06/13 15:11:10;;;;;;;5.30;3.00;;;33.30;23.30;;;;;;20994575;28;20063;-54
2021/06/13 15:21:11;;;;;;;3.78;2.15;;;33.30;22.90;;;;;;20996216;28;20060;-54
2021/06/13 15:31:12;;;;;;;4.90;2.17;;;33.10;23.10;;;;;;20995022;28;20044;-54
2021/06/13 15:41:13;;;;;;;4.47;2.10;;;33.10;23.30;;;;;;20995248;28;20063;-55
2021/06/13 15:51:15;;;;;;;4.88;2.60;;;33.10;23.70;;;;;;20992983;28;20044;-54
2021/06/13 16:01:16;;;;;;;6.00;2.20;;;33.10;23.90;;;;;;20994081;28;20056;-56
2021/06/13 16:11:17;;;;;;;6.10;2.22;;;33.20;24.00;;;;;;20993986;28;20045;-54
2021/06/13 16:21:19;;;;;;;4.15;2.67;;;33.20;23.80;;;;;;20974625;28;20060;-54
2021/06/13 16:31:20;;;;;;;5.70;2.33;;;33.30;24.40;;;;;;20991941;28;20052;-57
2021/06/13 16:41:21;;;;;;;6.13;2.80;;;33.20;24.30;;;;;;20993013;28;20044;-53
2021/06/13 16:51:23;;;;;;;6.88;3.10;;;33.10;24.90;;;;;;21006860;28;20049;-53
2021/06/13 17:01:24;;;;;;;9.18;3.83;;;32.90;25.40;;;;;;21006161;28;20054;-59
2021/06/13 17:11:27;;;;;;;6.18;2.80;;;32.80;26.20;;;;;;21004389;28;20056;-54
2021/06/13 17:21:28;;;;;;;5.13;3.13;;;32.60;26.40;;;;;;20986789;28;20049;-54
2021/06/13 17:31:30;;;;;;;8.00;2.70;;;32.30;27.00;;;;;;20986291;28;20048;-54
2021/06/13 17:41:43;;;;;;;6.45;3.00;;;32.10;27.30;;;;;;21003413;28;20052;-55
2021/06/13 17:51:44;;;;;;;7.55;3.20;;;32.30;27.40;;;;;;21002614;28;20094;-53
2021/06/13 18:01:47;;;;;;;5.53;2.80;;;32.10;28.30;;;;;;21001867;28;20056;-53
2021/06/13 18:11:48;;;;;;;13.30;5.28;;;;;;;;;;21001284;28;20056;-57
2021/06/13 18:21:50;;;;;;;9.93;4.25;;;30.40;33.40;;;;;;20999397;28;20071;-52
2021/06/13 18:31:51;;;;;;;9.13;3.65;;;29.90;34.70;;;;;;20999280;28;20056;-54
2021/06/13 18:41:53;;;;;;;5.45;2.60;;;;;;;;;;20998737;28;20439;-53
2021/06/13 18:51:54;;;;;;;8.95;3.00;;;28.60;37.90;;;;;;20997551;28;20051;-57
2021/06/13 19:01:56;;;;;;;8.70;2.72;;;;;;;;;;20998003;28;20075;-57
2021/06/13 19:11:58;;;;;;;10.25;2.40;;;;;;;;;;20995828;28;20493;-54
2021/06/13 19:22:02;;;;;;;5.57;2.60;;;28.10;36.40;;;;;;20996257;28;20071;-54
2021/06/13 19:32:04;;;;;;;5.45;2.45;;;;;;;;;;20995518;28;20349;-54
2021/06/13 19:42:06;;;;;;;5.78;2.83;;;;;;;;;;20994413;28;20044;-55
2021/06/13 19:52:07;;;;;;;7.13;4.20;;;;;;;;;;20993449;28;20067;-53
2021/06/13 20:02:09;;;;;;;6.68;3.70;;;;;;;;;;20993588;28;20049;-53
2021/06/13 20:12:11;;;;;;;8.63;3.80;;;;;;;;;;20993045;28;20040;-55
2021/06/13 20:22:13;;;;;;;10.57;5.57;;;;;;;;;;21004909;28;20053;-52
2021/06/13 20:32:15;;;;;;;11.63;5.43;;;;;;;;;;21007383;28;20445;-51
2021/06/13 20:42:19;;;;;;;11.43;5.15;;;;;;;;;;21007495;28;20098;-55
2021/06/13 20:52:20;;;;;;;10.00;5.47;;;28.60;36.50;;;;;;21006826;28;20158;-54
2021/06/13 21:02:22;;;;;;;9.38;4.88;;;27.70;36.90;;;;;;21007192;28;20067;-56
2021/06/13 21:12:23;;;;;;;8.77;4.50;;;27.50;37.50;;;;;;21006500;28;20078;-57
2021/06/13 21:22:24;;;;;;;;;;;27.40;37.70;;;;;;21005472;28;20053;-52
2021/06/13 21:32:25;;;;;;;11.30;3.50;;;27.20;37.70;;;;;;21003467;28;20364;-53
2021/06/13 21:42:27;;;;;;;11.48;4.30;;;27.10;38.30;;;;;;21002753;28;20052;-59
2021/06/13 21:52:28;;;;;;;6.40;3.35;;;26.90;38.80;;;;;;21003582;28;20045;-53
2021/06/13 22:02:29;;;;;;;;;;;26.80;39.20;;;;;;21003083;28;20416;-55
2021/06/13 22:12:30;;;;;;;6.32;3.67;;;26.60;39.30;;;;;;21001455;28;19924;-55
2021/06/13 22:22:32;;;;;;;;;;;26.50;39.40;;;;;;21000246;28;20052;-57
2021/06/13 22:32:33;;;;;;;8.32;2.90;;;26.30;39.40;;;;;;20980588;28;19963;-53
2021/06/13 22:42:35;;;;;;;8.50;4.20;;;26.70;39.10;;;;;;20998064;28;20098;-53
2021/06/13 22:52:36;;;;;;;10.05;3.22;;;26.10;39.90;;;;;;20996511;28;20378;-59
2021/06/13 23:02:38;;;;;;;7.20;4.00;;;26.50;39.10;;;;;;20998456;28;20485;-58
2021/06/13 23:12:39;;;;;;;7.47;3.35;;;26.10;39.80;;;;;;20996739;28;20405;-54
2021/06/13 23:22:41;;;;;;;4.65;3.00;;;26.10;40.40;;;;;;20978495;28;20048;-53
2021/06/13 23:32:43;;;;;;;4.28;2.72;;;26.10;39.00;;;;;;20995596;28;20439;-52
2021/06/13 23:42:45;;;;;;;3.08;2.60;;;26.40;38.10;;;;;;20995324;28;20052;-53
2021/06/13 23:52:46;;;;;;;7.32;3.55;;;26.40;37.70;;;;;;20994560;28;20045;-59
